sensor_id;sensor_type;location;lat;lon;timestamp;temperature;humidity
15103;DHT22;7652;53.584;9.998;2023-07-20T00:03:20;15.80;99.90
15103;DHT22;7652;53.584;9.998;2023-07-20T00:06:45;15.90;99.90
15103;DHT22;7652;53.584;9.998;2023-07-20T00:10:07;15.90;99.90
15103;DHT22;7652;53.584;9.998;2023-07-20T00:13:30;15.90;99.90
15103;DHT22;7652;53.584;9.998;2023-07-20T00:16:52;15.90;99.90
15103;DHT22;7652;53.584;9.998;2023-07-20T00:20:17;15.90;99.90
15103;DHT22;7652;53.584;9.998;2023-07-20T00:23:39;16.00;99.90
15103;DHT22;7652;53.584;9.998;2023-07-20T00:27:00;16.00;99.90
15103;DHT22;7652;53.584;9.998;2023-07-20T00:30:24;16.00;99.90
15103;DHT22;7652;53.584;9.998;2023-07-20T00:33:46;16.10;99.90
15103;DHT22;7652;53.584;9.998;2023-07-20T00:37:07;16.00;99.90
15103;DHT22;7652;53.584;9.998;2023-07-20T00:40:34;16.00;99.90
15103;DHT22;7652;53.584;9.998;2023-07-20T00:43:56;16.10;99.90
15103;DHT22;7652;53.584;9.998;2023-07-20T00:47:19;16.10;99.90
15103;DHT22;7652;53.584;9.998;2023-07-20T00:50:41;16.20;99.90
15103;DHT22;7652;53.584;9.998;2023-07-20T00:54:03;16.10;99.90
15103;DHT22;7652;53.584;9.998;2023-07-20T00:57:25;16.00;99.90
15103;DHT22;7652;53.584;9.998;2023-07-20T01:00:46;16.00;99.90
15103;DHT22;7652;53.584;9.998;2023-07-20T01:04:09;15.90;99.90
15103;DHT22;7652;53.584;9.998;2023-07-20T01:07:34;15.90;99.90
15103;DHT22;7652;53.584;9.998;2023-07-20T01:11:01;15.80;99.90
15103;DHT22;7652;53.584;9.998;2023-07-20T01:14:27;15.80;99.90
15103;DHT22;7652;53.584;9.998;2023-07-20T01:17:48;15.80;99.90
15103;DHT22;7652;53.584;9.998;2023-07-20T01:21:21;15.80;99.90
15103;DHT22;7652;53.584;9.998;2023-07-20T01:25:01;15.70;99.90
15103;DHT22;7652;53.584;9.998;2023-07-20T01:28:37;15.60;99.90
15103;DHT22;7652;53.584;9.998;2023-07-20T01:32:02;15.50;99.90
15103;DHT22;7652;53.584;9.998;2023-07-20T01:35:29;15.50;99.90
15103;DHT22;7652;53.584;9.998;2023-07-20T01:38:52;15.50;99.90
15103;DHT22;7652;53.584;9.998;2023-07-20T01:42:13;15.50;99.90
15103;DHT22;7652;53.584;9.998;2023-07-20T01:45:34;15.50;99.90
15103;DHT22;7652;53.584;9.998;2023-07-20T01:48:57;15.50;99.90
15103;DHT22;7652;53.584;9.998;2023-07-20T01:52:19;15.50;99.90
15103;DHT22;7652;53.584;9.998;2023-07-20T01:55:40;15.50;99.90
15103;DHT22;7652;53.584;9.998;2023-07-20T01:59:02;15.40;99.90
15103;DHT22;7652;53.584;9.998;2023-07-20T02:02:26;15.50;99.90
15103;DHT22;7652;53.584;9.998;2023-07-20T02:05:49;15.50;99.90
15103;DHT22;7652;53.584;9.998;2023-07-20T02:09:10;15.50;99.90
15103;DHT22;7652;53.584;9.998;2023-07-20T02:12:31;15.50;99.90
15103;DHT22;7652;53.584;9.998;2023-07-20T02:15:53;15.50;99.90
15103;DHT22;7652;53.584;9.998;2023-07-20T02:19:15;15.50;99.90
15103;DHT22;7652;53.584;9.998;2023-07-20T02:22:38;15.40;99.90
15103;DHT22;7652;53.584;9.998;2023-07-20T02:26:00;15.50;99.90
15103;DHT22;7652;53.584;9.998;2023-07-20T02:29:21;15.40;99.90
15103;DHT22;7652;53.584;9.998;2023-07-20T02:32:43;15.40;99.90
15103;DHT22;7652;53.584;9.998;2023-07-20T02:36:05;15.40;99.90
15103;DHT22;7652;53.584;9.998;2023-07-20T02:39:28;15.40;99.90
15103;DHT22;7652;53.584;9.998;2023-07-20T02:42:49;15.40;99.90
15103;DHT22;7652;53.584;9.998;2023-07-20T02:46:11;15.40;99.90
15103;DHT22;7652;53.584;9.998;2023-07-20T02:49:32;15.50;99.90
15103;DHT22;7652;53.584;9.998;2023-07-20T02:52:54;15.50;99.90
15103;DHT22;7652;53.584;9.998;2023-07-20T02:56:16;15.50;99.90
15103;DHT22;7652;53.584;9.998;2023-07-20T02:59:38;15.50;99.90
15103;DHT22;7652;53.584;9.998;2023-07-20T03:03:00;15.50;99.90
15103;DHT22;7652;53.584;9.998;2023-07-20T03:06:23;15.50;99.90
15103;DHT22;7652;53.584;9.998;2023-07-20T03:09:45;15.50;99.90
15103;DHT22;7652;53.584;9.998;2023-07-20T03:13:08;15.50;99.90
15103;DHT22;7652;53.584;9.998;2023-07-20T03:16:29;15.50;99.90
15103;DHT22;7652;53.584;9.998;2023-07-20T03:19:53;15.50;99.90
15103;DHT22;7652;53.584;9.998;2023-07-20T03:23:14;15.40;99.90
15103;DHT22;7652;53.584;9.998;2023-07-20T03:26:37;15.50;99.90
15103;DHT22;7652;53.584;9.998;2023-07-20T03:30:00;15.40;99.90
15103;DHT22;7652;53.584;9.998;2023-07-20T03:33:21;15.50;99.90
15103;DHT22;7652;53.584;9.998;2023-07-20T03:36:43;15.40;99.90
15103;DHT22;7652;53.584;9.998;2023-07-20T03:40:05;15.50;99.90
15103;DHT22;7652;53.584;9.998;2023-07-20T03:43:28;15.50;99.90
15103;DHT22;7652;53.584;9.998;2023-07-20T03:46:51;15.40;99.90
15103;DHT22;7652;53.584;9.998;2023-07-20T03:50:13;15.40;99.90
15103;DHT22;7652;53.584;9.998;2023-07-20T03:53:34;15.40;99.90
15103;DHT22;7652;53.584;9.998;2023-07-20T03:56:55;15.40;99.90
15103;DHT22;7652;53.584;9.998;2023-07-20T04:00:17;15.50;99.90
15103;DHT22;7652;53.584;9.998;2023-07-20T04:03:41;15.40;99.90
15103;DHT22;7652;53.584;9.998;2023-07-20T04:07:05;15.40;99.90
15103;DHT22;7652;53.584;9.998;2023-07-20T04:10:27;15.40;99.90
15103;DHT22;7652;53.584;9.998;2023-07-20T04:13:48;15.40;99.90
15103;DHT22;7652;53.584;9.998;2023-07-20T04:17:10;15.40;99.90
15103;DHT22;7652;53.584;9.998;2023-07-20T04:20:35;15.40;99.90
15103;DHT22;7652;53.584;9.998;2023-07-20T04:23:56;15.40;99.90
15103;DHT22;7652;53.584;9.998;2023-07-20T04:27:17;15.50;99.90
15103;DHT22;7652;53.584;9.998;2023-07-20T04:30:39;15.50;99.90
15103;DHT22;7652;53.584;9.998;2023-07-20T04:34:00;15.50;99.90
15103;DHT22;7652;53.584;9.998;2023-07-20T04:37:23;15.50;99.90
15103;DHT22;7652;53.584;9.998;2023-07-20T04:40:45;15.50;99.90
15103;DHT22;7652;53.584;9.998;2023-07-20T04:44:07;15.60;99.90
15103;DHT22;7652;53.584;9.998;2023-07-20T04:47:28;15.70;99.90
15103;DHT22;7652;53.584;9.998;2023-07-20T04:50:50;15.70;99.90
15103;DHT22;7652;53.584;9.998;2023-07-20T04:54:13;15.80;99.90
15103;DHT22;7652;53.584;9.998;2023-07-20T04:57:34;15.80;99.90
15103;DHT22;7652;53.584;9.998;2023-07-20T05:00:56;15.80;99.90
15103;DHT22;7652;53.584;9.998;2023-07-20T05:04:17;15.70;99.90
15103;DHT22;7652;53.584;9.998;2023-07-20T05:07:42;15.70;99.90
15103;DHT22;7652;53.584;9.998;2023-07-20T05:11:04;15.70;99.90
15103;DHT22;7652;53.584;9.998;2023-07-20T05:14:27;15.70;99.90
15103;DHT22;7652;53.584;9.998;2023-07-20T05:17:48;15.70;99.90
15103;DHT22;7652;53.584;9.998;2023-07-20T05:21:10;15.80;99.90
15103;DHT22;7652;53.584;9.998;2023-07-20T05:24:31;15.90;99.90
15103;DHT22;7652;53.584;9.998;2023-07-20T05:27:54;15.90;99.90
15103;DHT22;7652;53.584;9.998;2023-07-20T05:31:16;15.90;99.90
15103;DHT22;7652;53.584;9.998;2023-07-20T05:34:37;16.00;99.90
15103;DHT22;7652;53.584;9.998;2023-07-20T05:37:59;16.20;99.90
15103;DHT22;7652;53.584;9.998;2023-07-20T05:41:20;16.30;99.90
15103;DHT22;7652;53.584;9.998;2023-07-20T05:44:44;16.40;99.90
15103;DHT22;7652;53.584;9.998;2023-07-20T05:48:08;16.50;99.90
15103;DHT22;7652;53.584;9.998;2023-07-20T05:51:32;16.80;99.90
15103;DHT22;7652;53.584;9.998;2023-07-20T05:54:55;17.30;99.90
15103;DHT22;7652;53.584;9.998;2023-07-20T05:58:17;17.70;99.90
15103;DHT22;7652;53.584;9.998;2023-07-20T06:01:40;18.00;99.90
15103;DHT22;7652;53.584;9.998;2023-07-20T06:05:01;18.20;99.90
15103;DHT22;7652;53.584;9.998;2023-07-20T06:08:23;18.60;99.90
15103;DHT22;7652;53.584;9.998;2023-07-20T06:11:45;18.80;99.90
15103;DHT22;7652;53.584;9.998;2023-07-20T06:15:24;19.10;99.90
15103;DHT22;7652;53.584;9.998;2023-07-20T06:18:48;19.10;99.90
15103;DHT22;7652;53.584;9.998;2023-07-20T06:22:10;19.40;99.90
15103;DHT22;7652;53.584;9.998;2023-07-20T06:25:31;19.70;99.90
15103;DHT22;7652;53.584;9.998;2023-07-20T06:28:52;19.80;99.90
15103;DHT22;7652;53.584;9.998;2023-07-20T06:32:14;19.80;99.90
15103;DHT22;7652;53.584;9.998;2023-07-20T06:35:36;19.60;99.90
15103;DHT22;7652;53.584;9.998;2023-07-20T06:38:58;20.00;99.90
15103;DHT22;7652;53.584;9.998;2023-07-20T06:42:22;20.60;99.90
15103;DHT22;7652;53.584;9.998;2023-07-20T06:45:44;20.90;99.90
15103;DHT22;7652;53.584;9.998;2023-07-20T06:49:06;21.10;99.90
15103;DHT22;7652;53.584;9.998;2023-07-20T06:52:32;20.80;99.90
15103;DHT22;7652;53.584;9.998;2023-07-20T06:55:53;20.10;99.90
15103;DHT22;7652;53.584;9.998;2023-07-20T06:59:17;20.00;99.90
15103;DHT22;7652;53.584;9.998;2023-07-20T07:02:38;19.80;99.90
15103;DHT22;7652;53.584;9.998;2023-07-20T07:06:04;19.40;99.90
15103;DHT22;7652;53.584;9.998;2023-07-20T07:09:27;19.10;99.90
15103;DHT22;7652;53.584;9.998;2023-07-20T07:12:48;18.80;99.90
15103;DHT22;7652;53.584;9.998;2023-07-20T07:16:10;18.70;99.90
15103;DHT22;7652;53.584;9.998;2023-07-20T07:19:31;18.60;99.90
15103;DHT22;7652;53.584;9.998;2023-07-20T07:22:53;18.70;99.90
15103;DHT22;7652;53.584;9.998;2023-07-20T07:26:17;18.60;99.90
15103;DHT22;7652;53.584;9.998;2023-07-20T07:29:39;18.60;99.90
15103;DHT22;7652;53.584;9.998;2023-07-20T07:33:04;18.70;99.90
15103;DHT22;7652;53.584;9.998;2023-07-20T07:36:26;18.90;99.90
15103;DHT22;7652;53.584;9.998;2023-07-20T07:39:47;19.00;99.90
15103;DHT22;7652;53.584;9.998;2023-07-20T07:43:10;18.60;99.90
15103;DHT22;7652;53.584;9.998;2023-07-20T07:46:32;18.30;99.90
15103;DHT22;7652;53.584;9.998;2023-07-20T07:49:54;17.80;99.90
15103;DHT22;7652;53.584;9.998;2023-07-20T07:53:15;17.80;99.90
15103;DHT22;7652;53.584;9.998;2023-07-20T07:56:36;18.00;99.90
15103;DHT22;7652;53.584;9.998;2023-07-20T07:59:59;18.20;99.90
15103;DHT22;7652;53.584;9.998;2023-07-20T08:03:20;18.40;99.90
15103;DHT22;7652;53.584;9.998;2023-07-20T08:06:44;18.50;99.90
15103;DHT22;7652;53.584;9.998;2023-07-20T08:10:07;18.60;99.90
15103;DHT22;7652;53.584;9.998;2023-07-20T08:13:29;18.60;99.90
15103;DHT22;7652;53.584;9.998;2023-07-20T08:16:51;18.60;99.90
15103;DHT22;7652;53.584;9.998;2023-07-20T08:20:14;18.60;99.90
15103;DHT22;7652;53.584;9.998;2023-07-20T08:23:38;18.80;99.90
15103;DHT22;7652;53.584;9.998;2023-07-20T08:27:00;18.90;99.90
15103;DHT22;7652;53.584;9.998;2023-07-20T08:30:22;19.00;99.90
15103;DHT22;7652;53.584;9.998;2023-07-20T08:33:45;19.10;99.90
15103;DHT22;7652;53.584;9.998;2023-07-20T08:37:07;19.00;99.90
15103;DHT22;7652;53.584;9.998;2023-07-20T08:40:30;19.00;99.90
15103;DHT22;7652;53.584;9.998;2023-07-20T08:43:54;19.20;99.90
15103;DHT22;7652;53.584;9.998;2023-07-20T08:47:18;19.50;99.90
15103;DHT22;7652;53.584;9.998;2023-07-20T08:50:43;19.30;99.90
15103;DHT22;7652;53.584;9.998;2023-07-20T08:54:05;18.60;99.90
15103;DHT22;7652;53.584;9.998;2023-07-20T08:57:27;17.70;99.90
15103;DHT22;7652;53.584;9.998;2023-07-20T09:00:49;17.30;99.90
15103;DHT22;7652;53.584;9.998;2023-07-20T09:04:12;17.00;99.90
15103;DHT22;7652;53.584;9.998;2023-07-20T09:07:36;17.00;99.90
15103;DHT22;7652;53.584;9.998;2023-07-20T09:10:58;17.10;99.90
15103;DHT22;7652;53.584;9.998;2023-07-20T09:14:19;17.30;99.90
15103;DHT22;7652;53.584;9.998;2023-07-20T09:17:47;17.50;99.90
15103;DHT22;7652;53.584;9.998;2023-07-20T09:21:11;17.70;99.90
15103;DHT22;7652;53.584;9.998;2023-07-20T09:24:39;18.00;99.90
15103;DHT22;7652;53.584;9.998;2023-07-20T09:28:03;18.30;99.90
15103;DHT22;7652;53.584;9.998;2023-07-20T09:31:25;18.50;99.90
15103;DHT22;7652;53.584;9.998;2023-07-20T09:34:59;18.40;99.90
15103;DHT22;7652;53.584;9.998;2023-07-20T09:38:41;18.30;99.90
15103;DHT22;7652;53.584;9.998;2023-07-20T09:42:07;18.20;99.90
15103;DHT22;7652;53.584;9.998;2023-07-20T09:45:33;18.10;99.90
15103;DHT22;7652;53.584;9.998;2023-07-20T09:48:58;18.10;99.90
15103;DHT22;7652;53.584;9.998;2023-07-20T09:52:22;18.10;99.90
15103;DHT22;7652;53.584;9.998;2023-07-20T09:55:47;18.30;99.90
15103;DHT22;7652;53.584;9.998;2023-07-20T09:59:10;18.20;99.90
15103;DHT22;7652;53.584;9.998;2023-07-20T10:02:33;18.30;99.90
15103;DHT22;7652;53.584;9.998;2023-07-20T10:05:59;18.40;99.90
15103;DHT22;7652;53.584;9.998;2023-07-20T10:09:22;18.50;99.90
15103;DHT22;7652;53.584;9.998;2023-07-20T10:12:47;18.50;99.90
15103;DHT22;7652;53.584;9.998;2023-07-20T10:16:12;18.60;99.90
15103;DHT22;7652;53.584;9.998;2023-07-20T10:19:42;18.70;99.90
15103;DHT22;7652;53.584;9.998;2023-07-20T10:23:12;19.00;99.90
15103;DHT22;7652;53.584;9.998;2023-07-20T10:26:34;19.40;99.90
15103;DHT22;7652;53.584;9.998;2023-07-20T10:29:59;19.60;99.90
15103;DHT22;7652;53.584;9.998;2023-07-20T10:33:24;19.60;99.90
15103;DHT22;7652;53.584;9.998;2023-07-20T10:36:46;19.60;99.90
15103;DHT22;7652;53.584;9.998;2023-07-20T10:40:31;19.50;99.90
15103;DHT22;7652;53.584;9.998;2023-07-20T10:43:58;19.70;99.90
15103;DHT22;7652;53.584;9.998;2023-07-20T10:47:19;19.90;99.90
15103;DHT22;7652;53.584;9.998;2023-07-20T10:50:43;20.00;99.90
15103;DHT22;7652;53.584;9.998;2023-07-20T10:54:08;20.20;99.90
15103;DHT22;7652;53.584;9.998;2023-07-20T10:57:31;20.10;99.90
15103;DHT22;7652;53.584;9.998;2023-07-20T11:01:00;19.50;99.90
15103;DHT22;7652;53.584;9.998;2023-07-20T11:04:38;19.20;99.90
15103;DHT22;7652;53.584;9.998;2023-07-20T11:08:03;19.10;99.90
15103;DHT22;7652;53.584;9.998;2023-07-20T11:11:26;19.30;99.90
15103;DHT22;7652;53.584;9.998;2023-07-20T11:14:54;19.50;99.90
15103;DHT22;7652;53.584;9.998;2023-07-20T11:18:16;19.50;99.90
15103;DHT22;7652;53.584;9.998;2023-07-20T11:21:41;19.40;99.90
15103;DHT22;7652;53.584;9.998;2023-07-20T11:25:23;19.30;99.90
15103;DHT22;7652;53.584;9.998;2023-07-20T11:28:48;19.40;99.90
15103;DHT22;7652;53.584;9.998;2023-07-20T11:32:10;19.60;99.90
15103;DHT22;7652;53.584;9.998;2023-07-20T11:35:35;19.90;99.90
15103;DHT22;7652;53.584;9.998;2023-07-20T11:38:58;20.10;99.90
15103;DHT22;7652;53.584;9.998;2023-07-20T11:42:22;20.20;99.90
15103;DHT22;7652;53.584;9.998;2023-07-20T11:45:46;20.00;99.90
15103;DHT22;7652;53.584;9.998;2023-07-20T11:49:08;20.20;99.90
15103;DHT22;7652;53.584;9.998;2023-07-20T11:52:30;20.40;99.90
15103;DHT22;7652;53.584;9.998;2023-07-20T11:55:52;20.50;99.90
15103;DHT22;7652;53.584;9.998;2023-07-20T11:59:18;20.80;99.90
15103;DHT22;7652;53.584;9.998;2023-07-20T12:02:40;20.90;99.90
15103;DHT22;7652;53.584;9.998;2023-07-20T12:06:06;20.90;99.90
15103;DHT22;7652;53.584;9.998;2023-07-20T12:09:28;21.10;99.90
15103;DHT22;7652;53.584;9.998;2023-07-20T12:13:05;21.20;99.90
15103;DHT22;7652;53.584;9.998;2023-07-20T12:16:29;21.40;99.90
15103;DHT22;7652;53.584;9.998;2023-07-20T12:19:57;21.40;99.90
15103;DHT22;7652;53.584;9.998;2023-07-20T12:23:19;21.40;99.90
15103;DHT22;7652;53.584;9.998;2023-07-20T12:26:40;21.30;99.90
15103;DHT22;7652;53.584;9.998;2023-07-20T12:30:01;21.10;99.90
15103;DHT22;7652;53.584;9.998;2023-07-20T12:33:26;21.20;99.90
15103;DHT22;7652;53.584;9.998;2023-07-20T12:36:47;21.10;99.90
15103;DHT22;7652;53.584;9.998;2023-07-20T12:40:09;20.80;99.90
15103;DHT22;7652;53.584;9.998;2023-07-20T12:43:31;20.80;99.90
15103;DHT22;7652;53.584;9.998;2023-07-20T12:46:53;20.80;99.90
15103;DHT22;7652;53.584;9.998;2023-07-20T12:50:15;20.80;99.90
15103;DHT22;7652;53.584;9.998;2023-07-20T12:53:37;20.90;99.90
15103;DHT22;7652;53.584;9.998;2023-07-20T12:56:59;20.90;99.90
15103;DHT22;7652;53.584;9.998;2023-07-20T13:00:24;21.00;99.90
15103;DHT22;7652;53.584;9.998;2023-07-20T13:03:45;21.00;99.90
15103;DHT22;7652;53.584;9.998;2023-07-20T13:07:11;21.40;99.90
15103;DHT22;7652;53.584;9.998;2023-07-20T13:10:36;22.30;99.90
15103;DHT22;7652;53.584;9.998;2023-07-20T13:13:58;23.30;99.90
15103;DHT22;7652;53.584;9.998;2023-07-20T13:17:20;23.40;99.90
15103;DHT22;7652;53.584;9.998;2023-07-20T13:20:42;23.60;99.90
15103;DHT22;7652;53.584;9.998;2023-07-20T13:24:05;23.70;99.90
15103;DHT22;7652;53.584;9.998;2023-07-20T13:27:27;23.90;99.90
15103;DHT22;7652;53.584;9.998;2023-07-20T13:30:52;23.40;99.90
15103;DHT22;7652;53.584;9.998;2023-07-20T13:34:13;23.10;99.90
15103;DHT22;7652;53.584;9.998;2023-07-20T13:37:39;23.20;99.90
15103;DHT22;7652;53.584;9.998;2023-07-20T13:41:02;22.70;99.90
15103;DHT22;7652;53.584;9.998;2023-07-20T13:44:24;22.30;99.90
15103;DHT22;7652;53.584;9.998;2023-07-20T13:47:45;22.30;99.90
15103;DHT22;7652;53.584;9.998;2023-07-20T13:51:10;22.40;99.90
15103;DHT22;7652;53.584;9.998;2023-07-20T13:54:32;22.30;99.90
15103;DHT22;7652;53.584;9.998;2023-07-20T13:57:55;22.00;99.90
15103;DHT22;7652;53.584;9.998;2023-07-20T14:01:17;21.90;99.90
15103;DHT22;7652;53.584;9.998;2023-07-20T14:04:42;21.90;99.90
15103;DHT22;7652;53.584;9.998;2023-07-20T14:08:04;21.50;99.90
15103;DHT22;7652;53.584;9.998;2023-07-20T14:11:26;21.50;99.90
15103;DHT22;7652;53.584;9.998;2023-07-20T14:14:53;21.60;99.90
15103;DHT22;7652;53.584;9.998;2023-07-20T14:18:15;21.80;99.90
15103;DHT22;7652;53.584;9.998;2023-07-20T14:21:39;21.70;99.90
15103;DHT22;7652;53.584;9.998;2023-07-20T14:25:01;21.60;99.90
15103;DHT22;7652;53.584;9.998;2023-07-20T14:28:23;21.40;99.90
15103;DHT22;7652;53.584;9.998;2023-07-20T14:31:46;21.60;99.90
15103;DHT22;7652;53.584;9.998;2023-07-20T14:35:11;21.70;99.90
15103;DHT22;7652;53.584;9.998;2023-07-20T14:38:34;21.70;99.90
15103;DHT22;7652;53.584;9.998;2023-07-20T14:41:56;21.60;99.90
15103;DHT22;7652;53.584;9.998;2023-07-20T14:45:18;21.40;99.90
15103;DHT22;7652;53.584;9.998;2023-07-20T14:48:40;21.40;99.90
15103;DHT22;7652;53.584;9.998;2023-07-20T14:52:02;21.20;99.90
15103;DHT22;7652;53.584;9.998;2023-07-20T14:55:35;21.20;99.90
15103;DHT22;7652;53.584;9.998;2023-07-20T14:58:56;21.20;99.90
15103;DHT22;7652;53.584;9.998;2023-07-20T15:02:18;21.30;99.90
15103;DHT22;7652;53.584;9.998;2023-07-20T15:05:41;21.20;99.90
15103;DHT22;7652;53.584;9.998;2023-07-20T15:09:03;21.20;99.90
15103;DHT22;7652;53.584;9.998;2023-07-20T15:12:25;21.30;99.90
15103;DHT22;7652;53.584;9.998;2023-07-20T15:15:46;21.40;99.90
15103;DHT22;7652;53.584;9.998;2023-07-20T15:19:09;21.30;99.90
15103;DHT22;7652;53.584;9.998;2023-07-20T15:22:35;21.10;99.90
15103;DHT22;7652;53.584;9.998;2023-07-20T15:25:59;20.90;99.90
15103;DHT22;7652;53.584;9.998;2023-07-20T15:29:20;20.80;99.90
15103;DHT22;7652;53.584;9.998;2023-07-20T15:32:45;20.80;99.90
15103;DHT22;7652;53.584;9.998;2023-07-20T15:36:10;20.90;99.90
15103;DHT22;7652;53.584;9.998;2023-07-20T15:39:33;20.80;99.90
15103;DHT22;7652;53.584;9.998;2023-07-20T15:42:55;20.80;99.90
15103;DHT22;7652;53.584;9.998;2023-07-20T15:46:45;20.90;99.90
15103;DHT22;7652;53.584;9.998;2023-07-20T15:50:09;21.00;99.90
15103;DHT22;7652;53.584;9.998;2023-07-20T15:53:33;21.00;99.90
15103;DHT22;7652;53.584;9.998;2023-07-20T15:56:56;21.00;99.90
15103;DHT22;7652;53.584;9.998;2023-07-20T16:00:18;21.10;99.90
15103;DHT22;7652;53.584;9.998;2023-07-20T16:03:40;21.00;99.90
15103;DHT22;7652;53.584;9.998;2023-07-20T16:07:03;21.10;99.90
15103;DHT22;7652;53.584;9.998;2023-07-20T16:10:27;21.10;99.90
15103;DHT22;7652;53.584;9.998;2023-07-20T16:13:50;21.10;99.90
15103;DHT22;7652;53.584;9.998;2023-07-20T16:17:13;21.00;99.90
15103;DHT22;7652;53.584;9.998;2023-07-20T16:20:35;20.90;99.90
15103;DHT22;7652;53.584;9.998;2023-07-20T16:23:56;20.80;99.90
15103;DHT22;7652;53.584;9.998;2023-07-20T16:27:18;20.90;99.90
15103;DHT22;7652;53.584;9.998;2023-07-20T16:30:41;20.80;99.90
15103;DHT22;7652;53.584;9.998;2023-07-20T16:34:02;20.90;99.90
15103;DHT22;7652;53.584;9.998;2023-07-20T16:37:25;20.90;99.90
15103;DHT22;7652;53.584;9.998;2023-07-20T16:40:50;20.70;99.90
15103;DHT22;7652;53.584;9.998;2023-07-20T16:44:14;20.40;99.90
15103;DHT22;7652;53.584;9.998;2023-07-20T16:47:37;20.20;99.90
15103;DHT22;7652;53.584;9.998;2023-07-20T16:51:00;20.20;99.90
15103;DHT22;7652;53.584;9.998;2023-07-20T16:54:21;20.20;99.90
15103;DHT22;7652;53.584;9.998;2023-07-20T16:57:43;20.20;99.90
15103;DHT22;7652;53.584;9.998;2023-07-20T17:01:05;20.10;99.90
15103;DHT22;7652;53.584;9.998;2023-07-20T17:04:28;19.90;99.90
15103;DHT22;7652;53.584;9.998;2023-07-20T17:07:50;19.90;99.90
15103;DHT22;7652;53.584;9.998;2023-07-20T17:11:15;19.90;99.90
15103;DHT22;7652;53.584;9.998;2023-07-20T17:14:36;19.80;99.90
15103;DHT22;7652;53.584;9.998;2023-07-20T17:17:58;19.80;99.90
15103;DHT22;7652;53.584;9.998;2023-07-20T17:21:21;19.80;99.90
15103;DHT22;7652;53.584;9.998;2023-07-20T17:24:43;19.90;99.90
15103;DHT22;7652;53.584;9.998;2023-07-20T17:28:07;19.90;99.90
15103;DHT22;7652;53.584;9.998;2023-07-20T17:31:32;19.90;99.90
15103;DHT22;7652;53.584;9.998;2023-07-20T17:34:54;19.90;99.90
15103;DHT22;7652;53.584;9.998;2023-07-20T17:38:19;19.90;99.90
15103;DHT22;7652;53.584;9.998;2023-07-20T17:41:43;19.90;99.90
15103;DHT22;7652;53.584;9.998;2023-07-20T17:45:06;19.80;99.90
15103;DHT22;7652;53.584;9.998;2023-07-20T17:48:28;19.70;99.90
15103;DHT22;7652;53.584;9.998;2023-07-20T17:51:51;19.70;99.90
15103;DHT22;7652;53.584;9.998;2023-07-20T17:55:14;19.70;99.90
15103;DHT22;7652;53.584;9.998;2023-07-20T17:58:35;19.60;99.90
15103;DHT22;7652;53.584;9.998;2023-07-20T18:01:56;19.60;99.90
15103;DHT22;7652;53.584;9.998;2023-07-20T18:05:18;19.50;99.90
15103;DHT22;7652;53.584;9.998;2023-07-20T18:08:40;19.40;99.90
15103;DHT22;7652;53.584;9.998;2023-07-20T18:12:04;19.30;99.90
15103;DHT22;7652;53.584;9.998;2023-07-20T18:15:26;19.30;99.90
15103;DHT22;7652;53.584;9.998;2023-07-20T18:18:47;19.30;99.90
15103;DHT22;7652;53.584;9.998;2023-07-20T18:22:08;19.20;99.90
15103;DHT22;7652;53.584;9.998;2023-07-20T18:25:30;19.20;99.90
15103;DHT22;7652;53.584;9.998;2023-07-20T18:28:52;19.20;99.90
15103;DHT22;7652;53.584;9.998;2023-07-20T18:32:14;19.20;99.90
15103;DHT22;7652;53.584;9.998;2023-07-20T18:35:35;19.10;99.90
15103;DHT22;7652;53.584;9.998;2023-07-20T18:38:57;19.00;99.90
15103;DHT22;7652;53.584;9.998;2023-07-20T18:42:19;18.90;99.90
15103;DHT22;7652;53.584;9.998;2023-07-20T18:45:42;18.90;99.90
15103;DHT22;7652;53.584;9.998;2023-07-20T18:49:03;18.90;99.90
15103;DHT22;7652;53.584;9.998;2023-07-20T18:52:25;18.80;99.90
15103;DHT22;7652;53.584;9.998;2023-07-20T18:55:46;18.80;99.90
15103;DHT22;7652;53.584;9.998;2023-07-20T18:59:08;18.70;99.90
15103;DHT22;7652;53.584;9.998;2023-07-20T19:02:31;18.60;99.90
15103;DHT22;7652;53.584;9.998;2023-07-20T19:05:53;18.50;99.90
15103;DHT22;7652;53.584;9.998;2023-07-20T19:09:14;18.60;99.90
15103;DHT22;7652;53.584;9.998;2023-07-20T19:12:36;18.60;99.90
15103;DHT22;7652;53.584;9.998;2023-07-20T19:15:58;18.60;99.90
15103;DHT22;7652;53.584;9.998;2023-07-20T19:19:24;18.50;99.90
15103;DHT22;7652;53.584;9.998;2023-07-20T19:22:46;18.40;99.90
15103;DHT22;7652;53.584;9.998;2023-07-20T19:26:08;18.30;99.90
15103;DHT22;7652;53.584;9.998;2023-07-20T19:29:30;18.40;99.90
15103;DHT22;7652;53.584;9.998;2023-07-20T19:32:51;18.30;99.90
15103;DHT22;7652;53.584;9.998;2023-07-20T19:36:14;18.30;99.90
15103;DHT22;7652;53.584;9.998;2023-07-20T19:39:36;18.30;99.90
15103;DHT22;7652;53.584;9.998;2023-07-20T19:42:58;18.40;99.90
15103;DHT22;7652;53.584;9.998;2023-07-20T19:46:20;18.30;99.90
15103;DHT22;7652;53.584;9.998;2023-07-20T19:49:42;18.30;99.90
15103;DHT22;7652;53.584;9.998;2023-07-20T19:53:05;18.10;99.90
15103;DHT22;7652;53.584;9.998;2023-07-20T19:56:46;18.20;99.90
15103;DHT22;7652;53.584;9.998;2023-07-20T20:00:09;18.20;99.90
15103;DHT22;7652;53.584;9.998;2023-07-20T20:03:32;18.20;99.90
15103;DHT22;7652;53.584;9.998;2023-07-20T20:06:56;18.10;99.90
15103;DHT22;7652;53.584;9.998;2023-07-20T20:10:21;18.10;99.90
15103;DHT22;7652;53.584;9.998;2023-07-20T20:13:46;18.00;99.90
15103;DHT22;7652;53.584;9.998;2023-07-20T20:17:07;18.00;99.90
15103;DHT22;7652;53.584;9.998;2023-07-20T20:20:31;17.80;99.90
15103;DHT22;7652;53.584;9.998;2023-07-20T20:23:53;17.90;99.90
15103;DHT22;7652;53.584;9.998;2023-07-20T20:27:16;17.90;99.90
15103;DHT22;7652;53.584;9.998;2023-07-20T20:30:38;17.80;99.90
15103;DHT22;7652;53.584;9.998;2023-07-20T20:33:59;17.80;99.90
15103;DHT22;7652;53.584;9.998;2023-07-20T20:37:21;17.80;99.90
15103;DHT22;7652;53.584;9.998;2023-07-20T20:40:45;17.90;99.90
15103;DHT22;7652;53.584;9.998;2023-07-20T20:44:09;17.90;99.90
15103;DHT22;7652;53.584;9.998;2023-07-20T20:47:35;17.90;99.90
15103;DHT22;7652;53.584;9.998;2023-07-20T20:50:58;17.90;99.90
15103;DHT22;7652;53.584;9.998;2023-07-20T20:54:20;17.80;99.90
15103;DHT22;7652;53.584;9.998;2023-07-20T20:57:42;17.70;99.90
15103;DHT22;7652;53.584;9.998;2023-07-20T21:01:08;17.60;99.90
15103;DHT22;7652;53.584;9.998;2023-07-20T21:04:29;17.40;99.90
15103;DHT22;7652;53.584;9.998;2023-07-20T21:07:51;17.40;99.90
15103;DHT22;7652;53.584;9.998;2023-07-20T21:11:15;17.30;99.90
15103;DHT22;7652;53.584;9.998;2023-07-20T21:14:36;17.30;99.90
15103;DHT22;7652;53.584;9.998;2023-07-20T21:17:59;17.30;99.90
15103;DHT22;7652;53.584;9.998;2023-07-20T21:21:21;17.20;99.90
15103;DHT22;7652;53.584;9.998;2023-07-20T21:24:42;17.10;99.90
15103;DHT22;7652;53.584;9.998;2023-07-20T21:28:04;17.00;99.90
15103;DHT22;7652;53.584;9.998;2023-07-20T21:31:25;16.90;99.90
15103;DHT22;7652;53.584;9.998;2023-07-20T21:34:48;16.90;99.90
15103;DHT22;7652;53.584;9.998;2023-07-20T21:38:09;16.90;99.90
15103;DHT22;7652;53.584;9.998;2023-07-20T21:41:31;16.90;99.90
15103;DHT22;7652;53.584;9.998;2023-07-20T21:44:53;16.80;99.90